sensor_id;sensor_type;location;lat;lon;timestamp;P1;durP1;ratioP1;P2;durP2;ratioP2
43933;SDS011;59081;42.706;23.306;2024-02-16T00:02:09;28.58;;;14.00;;
43933;SDS011;59081;42.706;23.306;2024-02-16T00:07:10;18.52;;;10.82;;
43933;SDS011;59081;42.706;23.306;2024-02-16T00:12:10;25.10;;;12.23;;
43933;SDS011;59081;42.706;23.306;2024-02-16T00:17:11;18.88;;;8.85;;
43933;SDS011;59081;42.706;23.306;2024-02-16T00:22:12;20.60;;;10.02;;
43933;SDS011;59081;42.706;23.306;2024-02-16T00:27:13;20.33;;;10.02;;
43933;SDS011;59081;42.706;23.306;2024-02-16T00:32:14;21.48;;;10.23;;
43933;SDS011;59081;42.706;23.306;2024-02-16T00:37:15;21.50;;;9.50;;
43933;SDS011;59081;42.706;23.306;2024-02-16T00:42:15;22.48;;;9.85;;
43933;SDS011;59081;42.706;23.306;2024-02-16T00:47:16;20.40;;;10.68;;
43933;SDS011;59081;42.706;23.306;2024-02-16T00:52:17;20.67;;;11.15;;
43933;SDS011;59081;42.706;23.306;2024-02-16T00:57:17;18.27;;;10.07;;
43933;SDS011;59081;42.706;23.306;2024-02-16T01:02:18;22.83;;;11.57;;
43933;SDS011;59081;42.706;23.306;2024-02-16T01:07:18;21.08;;;10.43;;
43933;SDS011;59081;42.706;23.306;2024-02-16T01:12:19;18.75;;;10.80;;
43933;SDS011;59081;42.706;23.306;2024-02-16T01:17:19;22.33;;;11.18;;
43933;SDS011;59081;42.706;23.306;2024-02-16T01:22:20;23.52;;;13.23;;
43933;SDS011;59081;42.706;23.306;2024-02-16T01:27:21;23.77;;;12.02;;
43933;SDS011;59081;42.706;23.306;2024-02-16T01:32:21;25.63;;;11.70;;
43933;SDS011;59081;42.706;23.306;2024-02-16T01:37:22;26.17;;;12.98;;
43933;SDS011;59081;42.706;23.306;2024-02-16T01:42:22;24.48;;;11.77;;
43933;SDS011;59081;42.706;23.306;2024-02-16T01:47:23;22.33;;;11.63;;
43933;SDS011;59081;42.706;23.306;2024-02-16T01:52:23;22.48;;;12.13;;
43933;SDS011;59081;42.706;23.306;2024-02-16T01:57:24;21.95;;;11.55;;
43933;SDS011;59081;42.706;23.306;2024-02-16T02:02:26;21.33;;;12.05;;
43933;SDS011;59081;42.706;23.306;2024-02-16T02:07:26;22.42;;;11.30;;
43933;SDS011;59081;42.706;23.306;2024-02-16T02:12:27;24.52;;;12.48;;
43933;SDS011;59081;42.706;23.306;2024-02-16T02:17:28;23.45;;;11.73;;
43933;SDS011;59081;42.706;23.306;2024-02-16T02:22:28;21.25;;;13.23;;
43933;SDS011;59081;42.706;23.306;2024-02-16T02:27:29;25.38;;;12.65;;
43933;SDS011;59081;42.706;23.306;2024-02-16T02:32:30;26.45;;;14.20;;
43933;SDS011;59081;42.706;23.306;2024-02-16T02:37:30;29.42;;;15.68;;
43933;SDS011;59081;42.706;23.306;2024-02-16T02:42:31;29.85;;;13.18;;
43933;SDS011;59081;42.706;23.306;2024-02-16T02:47:31;28.63;;;13.55;;
43933;SDS011;59081;42.706;23.306;2024-02-16T02:52:32;33.85;;;14.57;;
43933;SDS011;59081;42.706;23.306;2024-02-16T02:57:36;29.95;;;15.43;;
43933;SDS011;59081;42.706;23.306;2024-02-16T03:02:37;24.73;;;13.48;;
43933;SDS011;59081;42.706;23.306;2024-02-16T03:07:38;27.25;;;15.23;;
43933;SDS011;59081;42.706;23.306;2024-02-16T03:12:39;29.83;;;14.15;;
43933;SDS011;59081;42.706;23.306;2024-02-16T03:17:39;32.70;;;15.43;;
43933;SDS011;59081;42.706;23.306;2024-02-16T03:22:41;27.60;;;14.07;;
43933;SDS011;59081;42.706;23.306;2024-02-16T03:27:42;28.65;;;13.80;;
43933;SDS011;59081;42.706;23.306;2024-02-16T03:32:42;23.75;;;11.32;;
43933;SDS011;59081;42.706;23.306;2024-02-16T03:37:43;20.38;;;10.40;;
43933;SDS011;59081;42.706;23.306;2024-02-16T03:42:44;20.17;;;10.45;;
43933;SDS011;59081;42.706;23.306;2024-02-16T03:47:44;27.00;;;11.75;;
43933;SDS011;59081;42.706;23.306;2024-02-16T03:52:45;23.65;;;11.85;;
43933;SDS011;59081;42.706;23.306;2024-02-16T03:57:46;24.83;;;12.85;;
43933;SDS011;59081;42.706;23.306;2024-02-16T04:02:46;21.30;;;12.52;;
43933;SDS011;59081;42.706;23.306;2024-02-16T04:07:47;22.13;;;10.65;;
43933;SDS011;59081;42.706;23.306;2024-02-16T04:12:48;24.42;;;11.02;;
43933;SDS011;59081;42.706;23.306;2024-02-16T04:17:48;21.48;;;10.77;;
43933;SDS011;59081;42.706;23.306;2024-02-16T04:22:49;16.70;;;10.73;;
43933;SDS011;59081;42.706;23.306;2024-02-16T04:27:50;21.65;;;9.98;;
43933;SDS011;59081;42.706;23.306;2024-02-16T04:32:50;31.13;;;13.88;;
43933;SDS011;59081;42.706;23.306;2024-02-16T04:37:51;25.33;;;11.20;;
43933;SDS011;59081;42.706;23.306;2024-02-16T04:42:52;23.20;;;10.55;;
43933;SDS011;59081;42.706;23.306;2024-02-16T04:47:52;23.75;;;10.77;;
43933;SDS011;59081;42.706;23.306;2024-02-16T04:52:53;17.48;;;9.82;;
43933;SDS011;59081;42.706;23.306;2024-02-16T04:57:54;16.42;;;9.90;;
43933;SDS011;59081;42.706;23.306;2024-02-16T05:02:55;20.33;;;10.52;;
43933;SDS011;59081;42.706;23.306;2024-02-16T05:07:56;19.08;;;9.60;;
43933;SDS011;59081;42.706;23.306;2024-02-16T05:12:57;21.00;;;9.85;;
43933;SDS011;59081;42.706;23.306;2024-02-16T05:17:58;17.83;;;9.48;;
43933;SDS011;59081;42.706;23.306;2024-02-16T05:22:59;28.30;;;10.50;;
43933;SDS011;59081;42.706;23.306;2024-02-16T05:28:02;20.38;;;9.45;;
43933;SDS011;59081;42.706;23.306;2024-02-16T05:33:02;20.20;;;9.90;;
43933;SDS011;59081;42.706;23.306;2024-02-16T05:38:03;15.57;;;8.93;;
43933;SDS011;59081;42.706;23.306;2024-02-16T05:43:07;20.70;;;11.10;;
43933;SDS011;59081;42.706;23.306;2024-02-16T05:48:08;19.00;;;10.40;;
43933;SDS011;59081;42.706;23.306;2024-02-16T05:53:10;21.17;;;10.77;;
43933;SDS011;59081;42.706;23.306;2024-02-16T05:58:11;23.05;;;11.05;;
43933;SDS011;59081;42.706;23.306;2024-02-16T06:03:12;22.67;;;11.65;;
43933;SDS011;59081;42.706;23.306;2024-02-16T06:08:13;21.50;;;10.93;;
43933;SDS011;59081;42.706;23.306;2024-02-16T06:13:17;27.13;;;12.30;;
43933;SDS011;59081;42.706;23.306;2024-02-16T06:18:19;31.20;;;13.40;;
43933;SDS011;59081;42.706;23.306;2024-02-16T06:23:20;22.80;;;13.43;;
43933;SDS011;59081;42.706;23.306;2024-02-16T06:28:20;23.17;;;12.40;;
43933;SDS011;59081;42.706;23.306;2024-02-16T06:33:23;29.88;;;13.82;;
43933;SDS011;59081;42.706;23.306;2024-02-16T06:38:23;24.00;;;13.43;;
43933;SDS011;59081;42.706;23.306;2024-02-16T06:43:24;26.02;;;12.98;;
43933;SDS011;59081;42.706;23.306;2024-02-16T06:48:24;30.35;;;13.63;;
43933;SDS011;59081;42.706;23.306;2024-02-16T06:53:25;30.55;;;14.80;;
43933;SDS011;59081;42.706;23.306;2024-02-16T06:58:25;27.98;;;14.43;;
43933;SDS011;59081;42.706;23.306;2024-02-16T07:03:26;33.60;;;14.65;;
43933;SDS011;59081;42.706;23.306;2024-02-16T07:08:27;37.30;;;15.48;;
43933;SDS011;59081;42.706;23.306;2024-02-16T07:13:28;27.58;;;14.25;;
43933;SDS011;59081;42.706;23.306;2024-02-16T07:18:29;37.10;;;13.40;;
43933;SDS011;59081;42.706;23.306;2024-02-16T07:23:30;26.10;;;12.38;;
43933;SDS011;59081;42.706;23.306;2024-02-16T07:28:31;33.42;;;13.02;;
43933;SDS011;59081;42.706;23.306;2024-02-16T07:33:32;30.92;;;12.40;;
43933;SDS011;59081;42.706;23.306;2024-02-16T07:38:32;38.05;;;14.00;;
43933;SDS011;59081;42.706;23.306;2024-02-16T07:43:33;24.58;;;14.27;;
43933;SDS011;59081;42.706;23.306;2024-02-16T07:48:35;30.55;;;15.55;;
43933;SDS011;59081;42.706;23.306;2024-02-16T07:53:35;37.85;;;14.55;;
43933;SDS011;59081;42.706;23.306;2024-02-16T07:58:36;18.73;;;11.40;;
43933;SDS011;59081;42.706;23.306;2024-02-16T08:03:36;19.98;;;11.25;;
43933;SDS011;59081;42.706;23.306;2024-02-16T08:08:38;19.58;;;12.15;;
43933;SDS011;59081;42.706;23.306;2024-02-16T08:13:38;23.15;;;12.73;;
43933;SDS011;59081;42.706;23.306;2024-02-16T08:18:41;29.48;;;14.68;;
43933;SDS011;59081;42.706;23.306;2024-02-16T08:23:44;25.10;;;14.48;;
43933;SDS011;59081;42.706;23.306;2024-02-16T08:28:44;28.98;;;14.18;;
43933;SDS011;59081;42.706;23.306;2024-02-16T08:33:45;24.45;;;11.45;;
43933;SDS011;59081;42.706;23.306;2024-02-16T08:38:46;23.23;;;11.02;;
43933;SDS011;59081;42.706;23.306;2024-02-16T08:43:47;24.83;;;12.35;;
43933;SDS011;59081;42.706;23.306;2024-02-16T08:48:48;28.42;;;13.20;;
43933;SDS011;59081;42.706;23.306;2024-02-16T08:53:51;18.88;;;11.13;;
43933;SDS011;59081;42.706;23.306;2024-02-16T08:58:51;20.42;;;10.38;;
43933;SDS011;59081;42.706;23.306;2024-02-16T09:03:52;23.95;;;11.07;;
43933;SDS011;59081;42.706;23.306;2024-02-16T09:08:54;23.10;;;10.82;;
43933;SDS011;59081;42.706;23.306;2024-02-16T09:13:55;21.02;;;11.07;;
43933;SDS011;59081;42.706;23.306;2024-02-16T09:18:57;25.35;;;9.88;;
43933;SDS011;59081;42.706;23.306;2024-02-16T09:29:01;9.38;;;6.10;;
43933;SDS011;59081;42.706;23.306;2024-02-16T09:34:02;11.77;;;6.45;;
43933;SDS011;59081;42.706;23.306;2024-02-16T09:39:02;11.25;;;6.38;;
43933;SDS011;59081;42.706;23.306;2024-02-16T09:44:04;9.30;;;4.93;;
43933;SDS011;59081;42.706;23.306;2024-02-16T09:49:06;6.63;;;4.00;;
43933;SDS011;59081;42.706;23.306;2024-02-16T09:54:07;6.75;;;3.90;;
43933;SDS011;59081;42.706;23.306;2024-02-16T09:59:08;8.63;;;5.22;;
43933;SDS011;59081;42.706;23.306;2024-02-16T10:04:08;9.15;;;5.15;;
43933;SDS011;59081;42.706;23.306;2024-02-16T10:09:21;8.35;;;4.03;;
43933;SDS011;59081;42.706;23.306;2024-02-16T10:14:23;8.18;;;5.15;;
43933;SDS011;59081;42.706;23.306;2024-02-16T10:19:25;6.63;;;4.40;;
43933;SDS011;59081;42.706;23.306;2024-02-16T10:24:38;11.00;;;5.10;;
43933;SDS011;59081;42.706;23.306;2024-02-16T10:29:39;13.20;;;4.78;;
43933;SDS011;59081;42.706;23.306;2024-02-16T10:34:43;5.78;;;4.32;;
43933;SDS011;59081;42.706;23.306;2024-02-16T10:39:46;6.88;;;4.38;;
43933;SDS011;59081;42.706;23.306;2024-02-16T10:44:49;7.55;;;3.28;;
43933;SDS011;59081;42.706;23.306;2024-02-16T10:49:51;11.23;;;4.82;;
43933;SDS011;59081;42.706;23.306;2024-02-16T10:54:52;6.13;;;3.75;;
43933;SDS011;59081;42.706;23.306;2024-02-16T10:59:53;6.75;;;3.80;;
43933;SDS011;59081;42.706;23.306;2024-02-16T11:04:55;5.03;;;3.97;;
43933;SDS011;59081;42.706;23.306;2024-02-16T11:09:56;5.40;;;3.30;;
43933;SDS011;59081;42.706;23.306;2024-02-16T11:14:59;5.35;;;3.90;;
43933;SDS011;59081;42.706;23.306;2024-02-16T11:20:00;7.03;;;4.63;;
43933;SDS011;59081;42.706;23.306;2024-02-16T11:25:04;7.20;;;4.35;;
43933;SDS011;59081;42.706;23.306;2024-02-16T11:30:05;6.53;;;4.28;;
43933;SDS011;59081;42.706;23.306;2024-02-16T11:35:07;4.72;;;3.25;;
43933;SDS011;59081;42.706;23.306;2024-02-16T11:40:10;5.05;;;3.63;;
43933;SDS011;59081;42.706;23.306;2024-02-16T11:45:12;4.82;;;3.30;;
43933;SDS011;59081;42.706;23.306;2024-02-16T11:50:17;13.00;;;3.47;;
43933;SDS011;59081;42.706;23.306;2024-02-16T11:55:19;4.75;;;3.35;;
43933;SDS011;59081;42.706;23.306;2024-02-16T12:00:20;5.03;;;3.47;;
43933;SDS011;59081;42.706;23.306;2024-02-16T12:05:20;5.57;;;3.63;;
43933;SDS011;59081;42.706;23.306;2024-02-16T12:10:21;5.45;;;3.45;;
43933;SDS011;59081;42.706;23.306;2024-02-16T12:15:22;3.92;;;3.22;;
43933;SDS011;59081;42.706;23.306;2024-02-16T12:20:25;6.28;;;3.63;;
43933;SDS011;59081;42.706;23.306;2024-02-16T12:25:28;7.22;;;3.35;;
43933;SDS011;59081;42.706;23.306;2024-02-16T12:30:29;4.13;;;3.17;;
43933;SDS011;59081;42.706;23.306;2024-02-16T12:35:29;10.15;;;4.35;;
43933;SDS011;59081;42.706;23.306;2024-02-16T12:40:30;5.95;;;3.35;;
43933;SDS011;59081;42.706;23.306;2024-02-16T12:45:30;5.13;;;2.92;;
43933;SDS011;59081;42.706;23.306;2024-02-16T12:50:32;5.40;;;3.25;;
43933;SDS011;59081;42.706;23.306;2024-02-16T12:55:32;4.90;;;3.20;;
43933;SDS011;59081;42.706;23.306;2024-02-16T13:00:33;6.88;;;3.63;;
43933;SDS011;59081;42.706;23.306;2024-02-16T13:05:33;4.18;;;3.22;;
43933;SDS011;59081;42.706;23.306;2024-02-16T13:10:34;6.00;;;3.72;;
43933;SDS011;59081;42.706;23.306;2024-02-16T13:15:35;4.55;;;3.17;;
43933;SDS011;59081;42.706;23.306;2024-02-16T13:20:37;6.10;;;3.28;;
43933;SDS011;59081;42.706;23.306;2024-02-16T13:25:38;8.02;;;3.97;;
43933;SDS011;59081;42.706;23.306;2024-02-16T13:30:39;4.32;;;3.03;;
43933;SDS011;59081;42.706;23.306;2024-02-16T13:35:39;4.13;;;3.13;;
43933;SDS011;59081;42.706;23.306;2024-02-16T13:40:40;5.07;;;3.58;;
43933;SDS011;59081;42.706;23.306;2024-02-16T13:50:53;5.10;;;2.78;;
43933;SDS011;59081;42.706;23.306;2024-02-16T13:55:54;9.13;;;3.40;;
43933;SDS011;59081;42.706;23.306;2024-02-16T14:00:56;8.68;;;5.88;;
43933;SDS011;59081;42.706;23.306;2024-02-16T14:05:58;6.78;;;3.63;;
43933;SDS011;59081;42.706;23.306;2024-02-16T14:11:00;5.80;;;3.50;;
43933;SDS011;59081;42.706;23.306;2024-02-16T14:16:01;6.25;;;3.38;;
43933;SDS011;59081;42.706;23.306;2024-02-16T14:21:04;5.32;;;3.50;;
43933;SDS011;59081;42.706;23.306;2024-02-16T14:26:04;4.32;;;2.70;;
43933;SDS011;59081;42.706;23.306;2024-02-16T14:31:05;7.13;;;3.95;;
43933;SDS011;59081;42.706;23.306;2024-02-16T14:36:06;8.20;;;3.67;;
43933;SDS011;59081;42.706;23.306;2024-02-16T14:46:10;5.57;;;3.50;;
43933;SDS011;59081;42.706;23.306;2024-02-16T14:51:15;3.90;;;3.42;;
43933;SDS011;59081;42.706;23.306;2024-02-16T15:01:33;7.55;;;4.47;;
43933;SDS011;59081;42.706;23.306;2024-02-16T15:06:34;10.15;;;4.45;;
43933;SDS011;59081;42.706;23.306;2024-02-16T15:11:37;6.45;;;4.22;;
43933;SDS011;59081;42.706;23.306;2024-02-16T15:16:38;11.23;;;4.38;;
43933;SDS011;59081;42.706;23.306;2024-02-16T15:21:46;7.50;;;4.38;;
43933;SDS011;59081;42.706;23.306;2024-02-16T15:26:54;6.00;;;4.10;;
43933;SDS011;59081;42.706;23.306;2024-02-16T15:32:12;7.60;;;4.72;;
43933;SDS011;59081;42.706;23.306;2024-02-16T15:37:16;5.75;;;3.60;;
43933;SDS011;59081;42.706;23.306;2024-02-16T15:42:26;7.30;;;4.60;;
43933;SDS011;59081;42.706;23.306;2024-02-16T15:47:38;9.32;;;5.40;;
43933;SDS011;59081;42.706;23.306;2024-02-16T15:52:41;9.88;;;4.82;;
43933;SDS011;59081;42.706;23.306;2024-02-16T15:57:59;9.80;;;4.68;;
43933;SDS011;59081;42.706;23.306;2024-02-16T16:03:01;6.18;;;3.80;;
43933;SDS011;59081;42.706;23.306;2024-02-16T16:08:04;9.23;;;5.20;;
43933;SDS011;59081;42.706;23.306;2024-02-16T16:13:05;8.60;;;5.05;;
43933;SDS011;59081;42.706;23.306;2024-02-16T16:18:08;11.43;;;5.50;;
43933;SDS011;59081;42.706;23.306;2024-02-16T16:23:15;11.45;;;5.93;;
43933;SDS011;59081;42.706;23.306;2024-02-16T16:28:18;13.02;;;7.25;;
43933;SDS011;59081;42.706;23.306;2024-02-16T16:33:29;14.90;;;7.80;;
43933;SDS011;59081;42.706;23.306;2024-02-16T16:38:35;16.42;;;8.98;;
43933;SDS011;59081;42.706;23.306;2024-02-16T16:43:43;15.48;;;7.78;;
43933;SDS011;59081;42.706;23.306;2024-02-16T16:48:53;15.65;;;8.00;;
43933;SDS011;59081;42.706;23.306;2024-02-16T16:54:00;13.70;;;6.35;;
43933;SDS011;59081;42.706;23.306;2024-02-16T16:59:04;14.70;;;8.68;;
43933;SDS011;59081;42.706;23.306;2024-02-16T17:04:19;18.13;;;6.95;;
43933;SDS011;59081;42.706;23.306;2024-02-16T17:09:23;9.48;;;5.57;;
43933;SDS011;59081;42.706;23.306;2024-02-16T17:14:36;11.82;;;6.07;;
43933;SDS011;59081;42.706;23.306;2024-02-16T17:19:48;10.68;;;7.13;;
43933;SDS011;59081;42.706;23.306;2024-02-16T17:24:54;15.38;;;7.38;;
43933;SDS011;59081;42.706;23.306;2024-02-16T17:29:57;12.75;;;6.32;;
43933;SDS011;59081;42.706;23.306;2024-02-16T17:35:16;9.82;;;5.82;;
43933;SDS011;59081;42.706;23.306;2024-02-16T17:40:21;10.00;;;6.03;;
43933;SDS011;59081;42.706;23.306;2024-02-16T17:45:22;8.57;;;5.45;;
43933;SDS011;59081;42.706;23.306;2024-02-16T17:50:52;7.95;;;5.00;;
43933;SDS011;59081;42.706;23.306;2024-02-16T17:55:53;7.22;;;4.57;;
43933;SDS011;59081;42.706;23.306;2024-02-16T18:00:57;14.63;;;6.22;;
43933;SDS011;59081;42.706;23.306;2024-02-16T18:06:01;13.75;;;7.53;;
43933;SDS011;59081;42.706;23.306;2024-02-16T18:11:05;9.82;;;5.75;;
43933;SDS011;59081;42.706;23.306;2024-02-16T18:16:06;10.40;;;5.10;;
43933;SDS011;59081;42.706;23.306;2024-02-16T18:21:16;9.65;;;5.43;;
43933;SDS011;59081;42.706;23.306;2024-02-16T18:26:19;10.68;;;6.05;;
43933;SDS011;59081;42.706;23.306;2024-02-16T18:31:21;15.07;;;7.88;;
43933;SDS011;59081;42.706;23.306;2024-02-16T18:36:22;12.00;;;7.03;;
43933;SDS011;59081;42.706;23.306;2024-02-16T18:41:23;14.55;;;6.45;;
43933;SDS011;59081;42.706;23.306;2024-02-16T18:46:23;18.15;;;7.38;;
43933;SDS011;59081;42.706;23.306;2024-02-16T18:51:24;13.63;;;6.60;;
43933;SDS011;59081;42.706;23.306;2024-02-16T18:56:24;16.73;;;7.50;;
43933;SDS011;59081;42.706;23.306;2024-02-16T19:01:31;18.38;;;7.40;;
43933;SDS011;59081;42.706;23.306;2024-02-16T19:06:41;13.10;;;7.55;;
43933;SDS011;59081;42.706;23.306;2024-02-16T19:11:42;13.48;;;7.10;;
43933;SDS011;59081;42.706;23.306;2024-02-16T19:16:45;11.77;;;6.93;;
43933;SDS011;59081;42.706;23.306;2024-02-16T19:21:45;16.20;;;8.30;;
43933;SDS011;59081;42.706;23.306;2024-02-16T19:26:48;42.63;;;26.60;;
43933;SDS011;59081;42.706;23.306;2024-02-16T19:31:48;25.85;;;9.98;;
43933;SDS011;59081;42.706;23.306;2024-02-16T19:36:51;25.48;;;11.45;;
43933;SDS011;59081;42.706;23.306;2024-02-16T19:41:55;67.65;;;27.25;;
43933;SDS011;59081;42.706;23.306;2024-02-16T19:46:58;61.50;;;26.73;;
43933;SDS011;59081;42.706;23.306;2024-02-16T19:51:59;55.67;;;26.10;;
43933;SDS011;59081;42.706;23.306;2024-02-16T19:57:01;68.22;;;38.03;;
43933;SDS011;59081;42.706;23.306;2024-02-16T20:02:03;60.05;;;32.20;;
43933;SDS011;59081;42.706;23.306;2024-02-16T20:07:07;74.63;;;35.03;;
43933;SDS011;59081;42.706;23.306;2024-02-16T20:12:08;68.00;;;33.38;;
43933;SDS011;59081;42.706;23.306;2024-02-16T20:17:09;73.15;;;37.58;;
43933;SDS011;59081;42.706;23.306;2024-02-16T20:22:10;75.95;;;38.15;;
43933;SDS011;59081;42.706;23.306;2024-02-16T20:27:11;59.97;;;31.88;;
43933;SDS011;59081;42.706;23.306;2024-02-16T20:32:13;61.50;;;26.27;;
43933;SDS011;59081;42.706;23.306;2024-02-16T20:37:17;37.97;;;16.65;;
43933;SDS011;59081;42.706;23.306;2024-02-16T20:42:18;29.92;;;16.42;;
43933;SDS011;59081;42.706;23.306;2024-02-16T20:47:20;35.40;;;16.95;;
43933;SDS011;59081;42.706;23.306;2024-02-16T20:52:21;34.90;;;17.05;;
43933;SDS011;59081;42.706;23.306;2024-02-16T20:57:22;53.42;;;27.25;;
43933;SDS011;59081;42.706;23.306;2024-02-16T21:02:23;60.40;;;27.95;;
43933;SDS011;59081;42.706;23.306;2024-02-16T21:07:24;59.67;;;25.67;;
43933;SDS011;59081;42.706;23.306;2024-02-16T21:12:26;45.03;;;24.05;;
43933;SDS011;59081;42.706;23.306;2024-02-16T21:17:29;49.75;;;26.77;;
43933;SDS011;59081;42.706;23.306;2024-02-16T21:22:32;47.58;;;24.63;;
43933;SDS011;59081;42.706;23.306;2024-02-16T21:27:33;48.55;;;21.98;;
43933;SDS011;59081;42.706;23.306;2024-02-16T21:32:36;43.10;;;19.60;;
43933;SDS011;59081;42.706;23.306;2024-02-16T21:37:37;57.10;;;28.92;;
43933;SDS011;59081;42.706;23.306;2024-02-16T21:42:38;77.50;;;43.17;;
43933;SDS011;59081;42.706;23.306;2024-02-16T21:47:39;79.00;;;43.35;;
43933;SDS011;59081;42.706;23.306;2024-02-16T21:52:40;68.60;;;38.05;;
43933;SDS011;59081;42.706;23.306;2024-02-16T21:57:46;61.13;;;28.67;;
43933;SDS011;59081;42.706;23.306;2024-02-16T22:02:46;57.25;;;26.30;;
43933;SDS011;59081;42.706;23.306;2024-02-16T22:07:47;67.07;;;31.80;;
43933;SDS011;59081;42.706;23.306;2024-02-16T22:12:48;50.20;;;25.08;;
43933;SDS011;59081;42.706;23.306;2024-02-16T22:17:55;49.50;;;24.95;;
43933;SDS011;59081;42.706;23.306;2024-02-16T22:22:58;56.85;;;24.35;;
43933;SDS011;59081;42.706;23.306;2024-02-16T22:27:59;57.97;;;26.80;;
43933;SDS011;59081;42.706;23.306;2024-02-16T22:33:00;52.40;;;22.27;;
43933;SDS011;59081;42.706;23.306;2024-02-16T22:38:03;47.10;;;23.58;;
43933;SDS011;59081;42.706;23.306;2024-02-16T22:43:04;43.22;;;23.73;;
43933;SDS011;59081;42.706;23.306;2024-02-16T22:48:05;48.30;;;25.38;;
43933;SDS011;59081;42.706;23.306;2024-02-16T23:03:19;49.10;;;25.35;;
43933;SDS011;59081;42.706;23.306;2024-02-16T23:08:21;45.72;;;20.98;;
43933;SDS011;59081;42.706;23.306;2024-02-16T23:13:22;37.80;;;19.40;;
43933;SDS011;59081;42.706;23.306;2024-02-16T23:18:23;44.65;;;23.05;;
43933;SDS011;59081;42.706;23.306;2024-02-16T23:23:25;45.73;;;21.17;;
43933;SDS011;59081;42.706;23.306;2024-02-16T23:28:25;36.22;;;18.50;;
43933;SDS011;59081;42.706;23.306;2024-02-16T23:33:26;37.92;;;19.92;;
43933;SDS011;59081;42.706;23.306;2024-02-16T23:38:26;32.15;;;13.23;;
43933;SDS011;59081;42.706;23.306;2024-02-16T23:43:27;23.73;;;12.30;;
43933;SDS011;59081;42.706;23.306;2024-02-16T23:48:28;28.35;;;12.55;;
43933;SDS011;59081;42.706;23.306;2024-02-16T23:53:29;29.13;;;12.50;;
43933;SDS011;59081;42.706;23.306;2024-02-16T23:58:30;23.13;;;11.77;;
